createdAt,value
2023-03-29T00:00:08.311Z,1899.00
2023-03-29T00:01:08.324Z,1897.00
2023-03-29T00:02:08.393Z,1898.00
2023-03-29T00:03:08.476Z,1900.00
2023-03-29T00:04:08.397Z,1898.00
2023-03-29T00:05:08.385Z,1894.00
2023-03-29T00:06:08.429Z,1893.00
2023-03-29T00:07:08.467Z,1889.00
2023-03-29T00:08:08.478Z,1889.00
2023-03-29T00:09:08.499Z,1887.00
2023-03-29T00:10:08.493Z,1885.00
2023-03-29T00:11:08.555Z,1883.00
2023-03-29T00:12:08.475Z,1880.00
2023-03-29T00:13:08.465Z,1876.00
2023-03-29T00:14:08.452Z,1877.00
2023-03-29T00:15:08.443Z,1876.00
2023-03-29T00:16:08.427Z,1877.00
2023-03-29T00:17:08.487Z,1875.00
2023-03-29T00:18:08.433Z,1873.00
2023-03-29T00:19:08.406Z,1872.00
2023-03-29T00:20:08.384Z,1873.00
2023-03-29T00:21:08.358Z,1872.00
2023-03-29T00:22:08.349Z,1872.00
2023-03-29T00:23:08.318Z,1868.00
2023-03-29T00:24:08.319Z,1859.00
2023-03-29T00:25:08.317Z,1857.00
2023-03-29T00:26:08.576Z,1850.00
2023-03-29T00:27:08.268Z,1851.00
2023-03-29T00:28:08.243Z,1853.00
2023-03-29T00:29:08.231Z,1849.00
2023-03-29T00:30:08.256Z,1844.00
2023-03-29T00:31:08.317Z,1841.00
2023-03-29T00:32:08.237Z,1845.00
2023-03-29T00:33:08.261Z,1838.00
2023-03-29T00:34:08.237Z,1837.00
2023-03-29T00:35:08.229Z,1841.00
2023-03-29T00:36:08.274Z,1840.00
2023-03-29T00:37:08.205Z,1839.00
2023-03-29T00:38:08.186Z,1837.00
2023-03-29T00:39:08.184Z,1840.00
2023-03-29T00:40:08.166Z,1841.00
2023-03-29T00:41:08.153Z,1836.00
2023-03-29T00:42:08.133Z,1830.00
2023-03-29T00:43:08.099Z,1829.00
2023-03-29T00:44:08.089Z,1826.00
2023-03-29T00:45:08.094Z,1827.00
2023-03-29T00:46:08.147Z,1825.00
2023-03-29T00:47:08.057Z,1822.00
2023-03-29T00:48:08.121Z,1823.00
2023-03-29T00:49:08.022Z,1823.00
2023-03-29T00:50:07.988Z,1822.00
2023-03-29T00:51:09.866Z,1819.00
2023-03-29T00:52:07.941Z,1817.00
2023-03-29T00:53:07.921Z,1812.00
2023-03-29T00:54:07.902Z,1808.00
2023-03-29T00:55:07.881Z,1807.00
2023-03-29T00:56:07.861Z,1806.00
2023-03-29T00:57:07.866Z,1805.00
2023-03-29T00:58:07.812Z,1804.00
2023-03-29T00:59:07.798Z,1799.00
2023-03-29T01:00:07.772Z,1795.00
2023-03-29T01:01:07.749Z,1788.00
2023-03-29T01:02:07.833Z,1786.00
2023-03-29T01:03:07.862Z,1782.00
2023-03-29T01:04:07.789Z,1786.00
2023-03-29T01:05:07.704Z,1789.00
2023-03-29T01:06:07.701Z,1785.00
2023-03-29T01:07:07.739Z,1780.00
2023-03-29T01:08:07.667Z,1782.00
2023-03-29T01:09:07.641Z,1782.00
2023-03-29T01:10:07.616Z,1783.00
2023-03-29T01:11:07.605Z,1784.00
2023-03-29T01:12:07.591Z,1786.00
2023-03-29T01:13:07.561Z,1780.00
2023-03-29T01:14:07.691Z,1779.00
2023-03-29T01:15:07.528Z,1775.00
2023-03-29T01:16:07.544Z,1772.00
2023-03-29T01:17:07.501Z,1771.00
2023-03-29T01:18:07.562Z,1770.00
2023-03-29T01:19:07.452Z,1765.00
2023-03-29T01:20:07.430Z,1766.00
2023-03-29T01:21:07.434Z,1764.00
2023-03-29T01:22:07.390Z,1768.00
2023-03-29T01:23:07.407Z,1769.00
2023-03-29T01:24:07.409Z,1770.00
2023-03-29T01:25:07.379Z,1770.00
2023-03-29T01:26:07.344Z,1767.00
2023-03-29T01:27:07.336Z,1765.00
2023-03-29T01:28:07.319Z,1763.00
2023-03-29T01:29:07.295Z,1759.00
2023-03-29T01:30:07.274Z,1755.00
2023-03-29T01:31:07.261Z,1752.00
2023-03-29T01:32:07.305Z,1750.00
2023-03-29T01:33:07.268Z,1751.00
2023-03-29T01:34:07.209Z,1751.00
2023-03-29T01:35:07.830Z,1757.00
2023-03-29T01:36:07.195Z,1758.00
2023-03-29T01:37:07.154Z,1761.00
2023-03-29T01:38:07.131Z,1758.00
2023-03-29T01:39:07.197Z,1753.00
2023-03-29T01:40:07.104Z,1749.00
2023-03-29T01:41:07.109Z,1745.00
2023-03-29T01:42:07.077Z,1745.00
2023-03-29T01:43:07.061Z,1747.00
2023-03-29T01:44:07.054Z,1741.00
2023-03-29T01:45:07.023Z,1739.00
2023-03-29T01:46:07.053Z,1740.00
2023-03-29T01:47:07.004Z,1740.00
2023-03-29T01:48:07.040Z,1743.00
2023-03-29T01:49:06.973Z,1742.00
2023-03-29T01:50:06.987Z,1738.00
2023-03-29T01:51:06.944Z,1735.00
2023-03-29T01:52:06.939Z,1733.00
2023-03-29T01:53:06.912Z,1732.00
2023-03-29T01:54:06.888Z,1730.00
2023-03-29T01:55:06.877Z,1725.00
2023-03-29T01:56:06.855Z,1724.00
2023-03-29T01:57:06.892Z,1721.00
2023-03-29T01:58:06.835Z,1720.00
2023-03-29T01:59:06.807Z,1717.00
2023-03-29T02:00:06.792Z,1716.00
2023-03-29T02:01:06.786Z,1717.00
2023-03-29T02:02:06.777Z,1717.00
2023-03-29T02:03:06.937Z,1722.00
2023-03-29T02:04:06.732Z,1722.00
2023-03-29T02:05:06.713Z,1716.00
2023-03-29T02:06:06.710Z,1715.00
2023-03-29T02:07:06.687Z,1716.00
2023-03-29T02:08:06.670Z,1711.00
2023-03-29T02:09:06.666Z,1710.00
2023-03-29T02:10:06.675Z,1707.00
2023-03-29T02:11:06.654Z,1706.00
2023-03-29T02:12:06.645Z,1709.00
2023-03-29T02:13:06.626Z,1705.00
2023-03-29T02:14:06.615Z,1698.00
2023-03-29T02:15:06.604Z,1693.00
2023-03-29T02:16:06.648Z,1695.00
2023-03-29T02:17:06.582Z,1690.00
2023-03-29T02:18:06.725Z,1689.00
2023-03-29T02:19:06.557Z,1687.00
2023-03-29T02:20:06.537Z,1688.00
2023-03-29T02:21:06.510Z,1688.00
2023-03-29T02:22:06.497Z,1688.00
2023-03-29T02:23:06.480Z,1686.00
2023-03-29T02:24:06.490Z,1684.00
2023-03-29T02:25:06.495Z,1683.00
2023-03-29T02:26:06.424Z,1683.00
2023-03-29T02:27:06.472Z,1683.00
2023-03-29T02:28:06.395Z,1683.00
2023-03-29T02:29:06.386Z,1682.00
2023-03-29T02:30:06.373Z,1682.00
2023-03-29T02:31:06.374Z,1678.00
2023-03-29T02:32:06.351Z,1672.00
2023-03-29T02:33:06.365Z,1666.00
2023-03-29T02:34:06.335Z,1656.00
2023-03-29T02:35:06.321Z,1654.00
2023-03-29T02:36:06.380Z,1652.00
2023-03-29T02:37:06.291Z,1652.00
2023-03-29T02:38:06.284Z,1654.00
2023-03-29T02:39:06.287Z,1651.00
2023-03-29T02:40:06.274Z,1651.00
2023-03-29T02:41:06.260Z,1646.00
2023-03-29T02:42:06.283Z,1642.00
2023-03-29T02:43:06.238Z,1643.00
2023-03-29T02:44:06.225Z,1642.00
2023-03-29T02:45:06.209Z,1642.00
2023-03-29T02:46:06.205Z,1640.00
2023-03-29T02:47:06.198Z,1641.00
2023-03-29T02:49:06.153Z,1639.00
2023-03-29T02:50:06.149Z,1637.00
2023-03-29T02:51:06.141Z,1638.00
2023-03-29T02:52:06.133Z,1634.00
2023-03-29T02:53:06.124Z,1632.00
2023-03-29T02:54:06.110Z,1628.00
2023-03-29T02:55:06.105Z,1631.00
2023-03-29T02:56:06.088Z,1629.00
2023-03-29T02:57:06.096Z,1627.00
2023-03-29T02:58:06.073Z,1621.00
2023-03-29T02:59:06.069Z,1621.00
2023-03-29T03:00:06.062Z,1618.00
2023-03-29T03:01:06.049Z,1614.00
2023-03-29T03:02:06.069Z,1613.00
2023-03-29T03:03:06.208Z,1612.00
2023-03-29T03:04:06.106Z,1612.00
2023-03-29T03:05:06.025Z,1613.00
2023-03-29T03:06:06.011Z,1607.00
2023-03-29T03:07:06.008Z,1609.00
2023-03-29T03:08:05.985Z,1609.00
2023-03-29T03:09:05.985Z,1608.00
2023-03-29T03:10:05.983Z,1606.00
2023-03-29T03:11:05.960Z,1605.00
2023-03-29T03:12:05.956Z,1602.00
2023-03-29T03:13:05.932Z,1602.00
2023-03-29T03:14:05.942Z,1601.00
2023-03-29T03:15:05.962Z,1599.00
2023-03-29T03:16:05.964Z,1597.00
2023-03-29T03:17:05.918Z,1596.00
2023-03-29T03:18:05.981Z,1594.00
2023-03-29T03:19:05.924Z,1594.00
2023-03-29T03:20:05.877Z,1594.00
2023-03-29T03:21:05.866Z,1591.00
2023-03-29T03:22:05.895Z,1591.00
2023-03-29T03:23:05.855Z,1591.00
2023-03-29T03:24:05.844Z,1587.00
2023-03-29T03:25:05.841Z,1585.00
2023-03-29T03:26:05.828Z,1581.00
2023-03-29T03:27:05.822Z,1574.00
2023-03-29T03:28:05.831Z,1573.00
2023-03-29T03:29:05.807Z,1573.00
2023-03-29T03:30:05.793Z,1571.00
2023-03-29T03:31:05.777Z,1571.00
2023-03-29T03:32:05.855Z,1570.00
2023-03-29T03:33:05.794Z,1569.00
2023-03-29T03:34:05.737Z,1567.00
2023-03-29T03:35:05.735Z,1563.00
2023-03-29T03:36:05.798Z,1557.00
2023-03-29T03:37:05.815Z,1553.00
2023-03-29T03:38:05.776Z,1554.00
2023-03-29T03:39:05.819Z,1553.00
2023-03-29T03:40:05.772Z,1555.00
2023-03-29T03:41:06.168Z,1558.00
2023-03-29T03:42:08.237Z,1555.00
2023-03-29T03:43:05.758Z,1555.00
2023-03-29T03:44:05.741Z,1555.00
2023-03-29T03:45:05.724Z,1555.00
2023-03-29T03:46:05.795Z,1553.00
2023-03-29T03:47:05.709Z,1550.00
2023-03-29T03:48:05.730Z,1547.00
2023-03-29T03:49:05.759Z,1546.00
2023-03-29T03:50:05.677Z,1546.00
2023-03-29T03:51:05.673Z,1547.00
2023-03-29T03:52:05.671Z,1549.00
2023-03-29T03:53:05.661Z,1544.00
2023-03-29T03:54:05.653Z,1540.00
2023-03-29T03:55:05.645Z,1538.00
2023-03-29T03:56:05.612Z,1540.00
2023-03-29T03:57:05.612Z,1544.00
2023-03-29T03:58:05.633Z,1545.00
2023-03-29T03:59:05.578Z,1546.00
2023-03-29T04:00:05.544Z,1546.00
2023-03-29T04:01:05.530Z,1549.00
2023-03-29T04:02:05.545Z,1552.00
2023-03-29T04:03:05.634Z,1548.00
2023-03-29T04:04:05.511Z,1546.00
2023-03-29T04:05:05.463Z,1542.00
2023-03-29T04:06:06.373Z,1544.00
2023-03-29T04:07:05.432Z,1546.00
2023-03-29T04:08:05.429Z,1543.00
2023-03-29T04:09:05.416Z,1543.00
2023-03-29T04:10:05.394Z,1539.00
2023-03-29T04:11:05.398Z,1540.00
2023-03-29T04:12:05.380Z,1538.00
2023-03-29T04:13:05.368Z,1537.00
2023-03-29T04:14:05.371Z,1537.00
2023-03-29T04:15:05.340Z,1534.00
2023-03-29T04:16:05.347Z,1528.00
2023-03-29T04:17:05.318Z,1529.00
2023-03-29T04:18:05.418Z,1525.00
2023-03-29T04:19:05.288Z,1523.00
2023-03-29T04:20:05.279Z,1517.00
2023-03-29T04:21:05.272Z,1515.00
2023-03-29T04:22:05.253Z,1516.00
2023-03-29T04:23:05.239Z,1516.00
2023-03-29T04:24:05.218Z,1514.00
2023-03-29T04:25:05.224Z,1514.00
2023-03-29T04:26:05.186Z,1512.00
2023-03-29T04:27:05.180Z,1511.00
2023-03-29T04:28:05.157Z,1510.00
2023-03-29T04:29:05.134Z,1507.00
2023-03-29T04:30:05.111Z,1504.00
2023-03-29T04:31:05.394Z,1503.00
2023-03-29T04:32:05.071Z,1504.00
2023-03-29T04:33:05.107Z,1503.00
2023-03-29T04:34:05.047Z,1502.00
2023-03-29T04:35:05.038Z,1502.00
2023-03-29T04:36:05.052Z,1502.00
2023-03-29T04:37:04.996Z,1500.00
2023-03-29T04:38:04.982Z,1497.00
2023-03-29T04:39:04.971Z,1494.00
2023-03-29T04:40:04.941Z,1493.00
2023-03-29T04:41:05.037Z,1495.00
2023-03-29T04:42:04.910Z,1492.00
2023-03-29T04:43:04.897Z,1492.00
2023-03-29T04:44:04.879Z,1491.00
2023-03-29T04:45:05.044Z,1488.00
2023-03-29T04:46:04.874Z,1484.00
2023-03-29T04:47:04.831Z,1488.00
2023-03-29T04:48:04.869Z,1485.00
2023-03-29T04:49:04.795Z,1485.00
2023-03-29T04:50:04.788Z,1485.00
2023-03-29T04:51:04.770Z,1480.00
2023-03-29T04:52:04.762Z,1476.00
2023-03-29T04:53:04.733Z,1478.00
2023-03-29T04:54:04.716Z,1479.00
2023-03-29T04:55:04.699Z,1477.00
2023-03-29T04:56:04.684Z,1472.00
2023-03-29T04:57:04.686Z,1472.00
2023-03-29T04:58:04.657Z,1475.00
2023-03-29T04:59:04.642Z,1475.00
2023-03-29T05:00:04.625Z,1472.00
2023-03-29T05:01:04.776Z,1469.00
2023-03-29T05:02:04.661Z,1466.00
2023-03-29T05:03:04.671Z,1464.00
2023-03-29T05:04:04.597Z,1465.00
2023-03-29T05:05:04.562Z,1464.00
2023-03-29T05:06:04.541Z,1462.00
2023-03-29T05:07:04.524Z,1462.00
2023-03-29T05:08:04.496Z,1459.00
2023-03-29T05:09:04.488Z,1460.00
2023-03-29T05:10:04.479Z,1462.00
2023-03-29T05:11:04.600Z,1458.00
2023-03-29T05:12:04.510Z,1455.00
2023-03-29T05:13:04.434Z,1452.00
2023-03-29T05:14:04.422Z,1451.00
2023-03-29T05:15:04.439Z,1450.00
2023-03-29T05:16:04.445Z,1447.00
2023-03-29T05:17:04.351Z,1444.00
2023-03-29T05:18:04.408Z,1442.00
2023-03-29T05:19:04.332Z,1445.00
2023-03-29T05:20:04.317Z,1446.00
2023-03-29T05:21:04.692Z,1442.00
2023-03-29T05:22:04.277Z,1378.00
2023-03-29T05:23:04.277Z,1388.00
2023-03-29T05:24:05.920Z,1403.00
2023-03-29T05:25:04.229Z,1415.00
2023-03-29T05:26:04.227Z,1418.00
2023-03-29T05:27:04.196Z,1485.00
2023-03-29T05:28:04.172Z,1497.00
2023-03-29T05:29:04.165Z,1503.00
2023-03-29T05:30:04.137Z,1515.00
2023-03-29T05:31:04.607Z,1650.00
2023-03-29T05:32:04.118Z,1785.00
2023-03-29T05:33:04.110Z,1707.00
2023-03-29T05:34:04.070Z,1722.00
2023-03-29T05:35:04.056Z,1732.00
2023-03-29T05:36:04.052Z,1819.00
2023-03-29T05:37:04.020Z,1835.00
2023-03-29T05:38:04.069Z,1850.00
2023-03-29T05:39:04.096Z,1947.00
2023-03-29T05:40:05.569Z,1934.00
2023-03-29T05:41:04.207Z,1938.00
2023-03-29T05:42:04.833Z,1947.00
2023-03-29T05:43:05.918Z,1955.00
2023-03-29T05:44:04.047Z,1965.00
2023-03-29T05:45:04.026Z,2069.00
2023-03-29T05:46:04.057Z,2069.00
2023-03-29T05:47:03.983Z,2076.00
2023-03-29T05:48:04.071Z,2101.00
2023-03-29T05:49:03.918Z,2125.00
2023-03-29T05:50:03.896Z,2155.00
2023-03-29T05:51:03.962Z,2171.00
2023-03-29T05:52:03.852Z,2193.00
2023-03-29T05:53:03.862Z,2209.00
2023-03-29T05:54:03.781Z,2220.00
2023-03-29T05:55:03.746Z,2237.00
2023-03-29T05:56:03.728Z,2279.00
2023-03-29T05:57:03.752Z,2404.00
2023-03-29T05:58:03.671Z,2347.00
2023-03-29T05:59:03.677Z,2372.00
2023-03-29T06:00:03.633Z,2399.00
2023-03-29T06:01:04.578Z,2416.00
2023-03-29T06:02:03.571Z,2540.00
2023-03-29T06:03:13.688Z,2540.00
2023-03-29T06:04:04.632Z,2534.00
2023-03-29T06:05:03.519Z,2538.00
2023-03-29T06:06:03.422Z,2558.00
2023-03-29T06:07:03.396Z,2594.00
2023-03-29T06:08:03.359Z,2605.00
2023-03-29T06:09:03.322Z,2624.00
2023-03-29T06:10:03.290Z,2656.00
2023-03-29T06:11:05.109Z,2705.00
2023-03-29T06:12:03.225Z,2725.00
2023-03-29T06:13:03.181Z,2725.00
2023-03-29T06:14:03.157Z,2714.00
2023-03-29T06:15:03.148Z,2729.00
2023-03-29T06:16:04.429Z,2752.00
2023-03-29T06:17:03.067Z,2777.00
2023-03-29T06:18:03.062Z,2803.00
2023-03-29T06:19:02.989Z,2820.00
2023-03-29T06:20:02.944Z,2841.00
2023-03-29T06:21:03.867Z,2881.00
2023-03-29T06:22:02.895Z,2946.00
2023-03-29T06:23:02.873Z,2901.00
2023-03-29T06:24:02.825Z,1869.00
2023-03-29T06:25:02.796Z,1395.00
2023-03-29T06:26:02.768Z,1504.00
2023-03-29T06:27:02.758Z,1613.00
2023-03-29T06:28:02.753Z,1671.00
2023-03-29T06:29:02.725Z,1721.00
2023-03-29T06:30:03.711Z,1762.00
2023-03-29T06:31:03.808Z,1806.00
2023-03-29T06:32:02.655Z,1828.00
2023-03-29T06:33:02.656Z,1845.00
2023-03-29T06:34:02.603Z,1875.00
2023-03-29T06:35:02.589Z,1898.00
2023-03-29T06:36:02.587Z,1913.00
2023-03-29T06:37:02.502Z,1953.00
2023-03-29T06:38:02.474Z,2014.00
2023-03-29T06:39:02.495Z,2060.00
2023-03-29T06:40:02.416Z,2087.00
2023-03-29T06:41:02.635Z,2109.00
2023-03-29T06:42:10.048Z,2216.00
2023-03-29T06:43:03.350Z,2230.00
2023-03-29T06:44:02.303Z,2243.00
2023-03-29T06:45:02.276Z,2259.00
2023-03-29T06:46:02.260Z,2276.00
2023-03-29T06:47:02.201Z,2324.00
2023-03-29T06:48:02.231Z,2336.00
2023-03-29T06:49:02.213Z,2348.00
2023-03-29T06:50:02.101Z,2371.00
2023-03-29T06:51:02.288Z,2379.00
2023-03-29T06:52:02.057Z,2398.00
2023-03-29T06:53:02.005Z,2422.00
2023-03-29T06:54:01.961Z,2454.00
2023-03-29T06:55:01.929Z,2506.00
2023-03-29T06:56:01.903Z,2522.00
2023-03-29T06:57:01.916Z,2579.00
2023-03-29T06:58:02.718Z,2620.00
2023-03-29T06:59:01.775Z,2629.00
2023-03-29T07:00:01.763Z,2630.00
2023-03-29T07:01:01.848Z,2644.00
2023-03-29T07:02:01.709Z,2672.00
2023-03-29T07:03:01.713Z,2689.00
2023-03-29T07:04:01.639Z,2774.00
2023-03-29T07:05:01.557Z,2768.00
2023-03-29T07:06:01.506Z,2778.00
2023-03-29T07:07:01.733Z,2806.00
2023-03-29T07:08:01.537Z,2812.00
2023-03-29T07:09:01.814Z,2827.00
2023-03-29T07:10:01.583Z,2850.00
2023-03-29T07:11:01.768Z,2899.00
2023-03-29T07:12:01.642Z,2912.00
2023-03-29T07:13:01.672Z,2914.00
2023-03-29T07:14:01.701Z,3008.00
2023-03-29T07:15:01.706Z,3137.00
2023-03-29T07:16:01.780Z,2993.00
2023-03-29T07:17:01.754Z,2956.00
2023-03-29T07:18:01.785Z,3043.00
2023-03-29T07:19:01.809Z,3031.00
2023-03-29T07:20:01.860Z,3018.00
2023-03-29T07:21:02.086Z,3010.00
2023-03-29T07:22:01.922Z,3018.00
2023-03-29T07:23:01.958Z,3014.00
2023-03-29T07:24:01.971Z,3009.00
2023-03-29T07:25:01.962Z,2999.00
2023-03-29T07:26:01.950Z,2990.00
2023-03-29T07:27:04.478Z,2982.00
2023-03-29T07:28:01.903Z,2986.00
2023-03-29T07:29:01.877Z,2986.00
2023-03-29T07:30:01.843Z,2980.00
2023-03-29T07:31:02.194Z,2975.00
2023-03-29T07:32:01.784Z,2972.00
2023-03-29T07:33:01.877Z,2969.00
2023-03-29T07:34:01.704Z,2963.00
2023-03-29T07:35:01.675Z,2961.00
2023-03-29T07:36:01.665Z,2956.00
2023-03-29T07:37:01.615Z,2956.00
2023-03-29T07:38:01.583Z,2952.00
2023-03-29T07:39:01.565Z,2951.00
2023-03-29T07:40:01.519Z,2944.00
2023-03-29T07:41:01.681Z,2935.00
2023-03-29T07:42:01.472Z,2929.00
2023-03-29T07:43:01.442Z,2922.00
2023-03-29T07:44:03.313Z,2919.00
2023-03-29T07:45:01.379Z,2917.00
2023-03-29T07:46:01.363Z,2910.00
2023-03-29T07:47:01.306Z,2904.00
2023-03-29T07:48:01.345Z,2900.00
2023-03-29T07:49:01.251Z,2892.00
2023-03-29T07:50:01.243Z,2890.00
2023-03-29T07:51:01.620Z,2886.00
2023-03-29T07:52:01.154Z,2882.00
2023-03-29T07:53:01.139Z,2886.00
2023-03-29T07:54:01.089Z,2882.00
2023-03-29T07:55:01.071Z,2881.00
2023-03-29T07:56:01.034Z,2876.00
2023-03-29T07:57:01.038Z,2877.00
2023-03-29T07:58:00.977Z,2875.00
2023-03-29T07:59:00.946Z,2874.00
2023-03-29T08:00:01.112Z,2863.00
2023-03-29T08:01:01.139Z,2857.00
2023-03-29T08:02:00.854Z,2845.00
2023-03-29T08:03:00.860Z,2839.00
2023-03-29T08:04:00.854Z,2832.00
2023-03-29T08:05:00.888Z,2821.00
2023-03-29T08:06:00.754Z,2810.00
2023-03-29T08:07:00.730Z,2806.00
2023-03-29T08:08:00.709Z,2802.00
2023-03-29T08:09:00.697Z,2793.00
2023-03-29T08:10:00.638Z,2786.00
2023-03-29T08:11:00.888Z,2783.00
2023-03-29T08:12:00.611Z,2775.00
2023-03-29T08:13:00.576Z,2767.00
2023-03-29T08:14:00.536Z,2756.00
2023-03-29T08:15:00.514Z,2753.00
2023-03-29T08:16:00.472Z,2751.00
2023-03-29T08:17:00.481Z,2742.00
2023-03-29T08:18:00.487Z,2736.00
2023-03-29T08:19:00.381Z,2731.00
2023-03-29T08:20:00.349Z,2725.00
2023-03-29T08:21:00.505Z,2722.00
2023-03-29T08:22:00.294Z,2714.00
2023-03-29T08:23:00.305Z,2713.00
2023-03-29T08:24:00.340Z,2707.00
2023-03-29T08:25:00.357Z,2697.00
2023-03-29T08:26:00.389Z,2692.00
2023-03-29T08:27:00.419Z,2684.00
2023-03-29T08:28:00.445Z,2674.00
2023-03-29T08:29:00.471Z,2662.00
2023-03-29T08:30:00.518Z,2650.00
2023-03-29T08:31:00.835Z,2642.00
2023-03-29T08:32:00.578Z,2640.00
2023-03-29T08:33:00.632Z,2637.00
2023-03-29T08:34:00.645Z,2635.00
2023-03-29T08:35:00.705Z,2632.00
2023-03-29T08:36:00.775Z,2631.00
2023-03-29T08:37:00.743Z,2629.00
2023-03-29T08:38:00.778Z,2627.00
2023-03-29T08:39:00.819Z,2622.00
2023-03-29T08:40:00.854Z,2621.00
2023-03-29T08:41:01.166Z,2616.00
2023-03-29T08:42:00.934Z,2602.00
2023-03-29T08:43:00.959Z,2594.00
2023-03-29T08:44:00.999Z,2592.00
2023-03-29T08:45:01.292Z,2593.00
2023-03-29T08:46:01.090Z,2594.00
2023-03-29T08:47:01.217Z,2595.00
2023-03-29T08:48:01.217Z,2599.00
2023-03-29T08:49:01.184Z,2599.00
2023-03-29T08:50:01.220Z,2591.00
2023-03-29T08:51:01.414Z,2579.00
2023-03-29T08:52:01.353Z,2573.00
2023-03-29T08:53:01.320Z,2565.00
2023-03-29T08:54:01.338Z,2561.00
2023-03-29T08:55:01.401Z,2560.00
2023-03-29T08:56:01.399Z,2557.00
2023-03-29T08:57:01.475Z,2558.00
2023-03-29T08:58:01.469Z,2550.00
2023-03-29T08:59:01.531Z,2543.00
2023-03-29T09:00:02.474Z,2535.00
2023-03-29T09:01:01.806Z,2532.00
2023-03-29T09:02:01.948Z,2532.00
2023-03-29T09:03:01.466Z,2530.00
2023-03-29T09:04:01.422Z,2527.00
2023-03-29T09:05:01.330Z,2521.00
2023-03-29T09:06:01.305Z,2514.00
2023-03-29T09:07:01.277Z,2506.00
2023-03-29T09:08:01.250Z,2497.00
2023-03-29T09:09:01.264Z,2493.00
2023-03-29T09:10:01.363Z,2490.00
2023-03-29T09:11:01.595Z,2483.00
2023-03-29T09:12:01.365Z,2478.00
2023-03-29T09:13:01.453Z,2469.00
2023-03-29T09:14:01.446Z,2468.00
2023-03-29T09:15:01.476Z,2466.00
2023-03-29T09:16:02.514Z,2460.00
2023-03-29T09:17:01.548Z,2459.00
2023-03-29T09:18:01.571Z,2449.00
2023-03-29T09:19:01.607Z,2447.00
2023-03-29T09:20:01.644Z,2445.00
2023-03-29T09:21:01.852Z,2444.00
2023-03-29T09:22:01.743Z,2434.00
2023-03-29T09:23:01.758Z,2432.00
2023-03-29T09:24:01.799Z,2435.00
2023-03-29T09:25:01.829Z,2434.00
2023-03-29T09:26:01.870Z,2429.00
2023-03-29T09:27:01.904Z,2426.00
2023-03-29T09:28:01.966Z,2424.00
2023-03-29T09:29:01.982Z,2422.00
2023-03-29T09:30:02.012Z,2419.00
2023-03-29T09:31:02.249Z,2416.00
2023-03-29T09:32:02.284Z,2413.00
2023-03-29T09:33:02.149Z,2412.00
2023-03-29T09:34:02.165Z,2409.00
2023-03-29T09:35:02.200Z,2406.00
2023-03-29T09:36:02.231Z,2402.00
2023-03-29T09:37:02.237Z,2404.00
2023-03-29T09:38:02.245Z,2404.00
2023-03-29T09:39:02.265Z,2405.00
2023-03-29T09:40:05.102Z,2400.00
2023-03-29T09:41:02.452Z,2398.00
2023-03-29T09:42:02.190Z,2397.00
2023-03-29T09:43:02.159Z,2394.00
2023-03-29T09:44:02.137Z,2391.00
2023-03-29T09:45:02.166Z,2387.00
2023-03-29T09:46:02.245Z,2382.00
2023-03-29T09:47:02.082Z,2378.00
2023-03-29T09:48:02.083Z,2377.00
2023-03-29T09:49:02.004Z,2383.00
2023-03-29T09:50:01.981Z,2383.00
2023-03-29T09:51:02.164Z,2379.00
2023-03-29T09:52:01.941Z,2377.00
2023-03-29T09:53:01.912Z,2374.00
2023-03-29T09:54:01.884Z,2368.00
2023-03-29T09:55:01.953Z,2363.00
2023-03-29T09:56:01.849Z,2355.00
2023-03-29T09:57:01.856Z,2353.00
2023-03-29T09:58:01.781Z,2356.00
2023-03-29T09:59:01.755Z,2348.00
2023-03-29T10:00:01.747Z,2341.00
2023-03-29T10:01:02.056Z,2339.00
2023-03-29T10:02:01.672Z,2336.00
2023-03-29T10:03:01.752Z,2335.00
2023-03-29T10:04:01.649Z,2334.00
2023-03-29T10:05:01.712Z,2332.00
2023-03-29T10:06:01.596Z,2328.00
2023-03-29T10:07:01.543Z,2328.00
2023-03-29T10:08:01.556Z,2328.00
2023-03-29T10:09:01.508Z,2328.00
2023-03-29T10:10:01.473Z,2324.00
2023-03-29T10:11:01.642Z,2319.00
2023-03-29T10:12:01.423Z,2316.00
2023-03-29T10:13:01.416Z,2316.00
2023-03-29T10:14:01.448Z,2317.00
2023-03-29T10:15:01.480Z,2311.00
2023-03-29T10:16:01.568Z,2303.00
2023-03-29T10:17:01.586Z,2305.00
2023-03-29T10:18:01.594Z,2302.00
2023-03-29T10:19:01.564Z,2299.00
2023-03-29T10:20:03.947Z,2293.00
2023-03-29T10:21:02.005Z,2289.00
2023-03-29T10:22:01.556Z,2282.00
2023-03-29T10:23:01.510Z,2281.00
2023-03-29T10:24:01.508Z,2278.00
2023-03-29T10:25:01.456Z,2283.00
2023-03-29T10:26:01.420Z,2287.00
2023-03-29T10:27:01.383Z,2288.00
2023-03-29T10:28:01.353Z,2290.00
2023-03-29T10:29:01.324Z,2290.00
2023-03-29T10:30:01.299Z,2283.00
2023-03-29T10:31:01.499Z,2278.00
2023-03-29T10:32:01.278Z,2276.00
2023-03-29T10:33:01.217Z,2270.00
2023-03-29T10:34:01.176Z,2267.00
2023-03-29T10:35:01.153Z,2266.00
2023-03-29T10:36:01.189Z,2263.00
2023-03-29T10:37:01.208Z,2260.00
2023-03-29T10:38:01.050Z,2258.00
2023-03-29T10:39:02.778Z,2253.00
2023-03-29T10:40:00.987Z,2250.00
2023-03-29T10:41:01.027Z,2249.00
2023-03-29T10:42:00.948Z,2243.00
2023-03-29T10:43:00.939Z,2243.00
2023-03-29T10:44:00.915Z,2245.00
2023-03-29T10:45:01.133Z,2239.00
2023-03-29T10:46:00.844Z,2234.00
2023-03-29T10:47:00.770Z,2234.00
2023-03-29T10:48:00.779Z,2229.00
2023-03-29T10:49:00.699Z,2230.00
2023-03-29T10:50:01.482Z,2229.00
2023-03-29T10:51:00.836Z,2223.00
2023-03-29T10:52:00.602Z,2223.00
2023-03-29T10:53:00.578Z,2223.00
2023-03-29T10:54:00.558Z,2224.00
2023-03-29T10:55:00.525Z,2221.00
2023-03-29T10:56:00.491Z,2220.00
2023-03-29T10:57:00.529Z,2224.00
2023-03-29T10:58:00.423Z,2224.00
2023-03-29T10:59:00.401Z,2225.00
2023-03-29T11:00:00.394Z,2218.00
2023-03-29T11:01:00.512Z,2215.00
2023-03-29T11:02:00.384Z,2211.00
2023-03-29T11:03:00.423Z,2211.00
2023-03-29T11:04:00.441Z,2212.00
2023-03-29T11:05:00.296Z,2205.00
2023-03-29T11:06:00.217Z,2199.00
2023-03-29T11:07:00.171Z,2193.00
2023-03-29T11:08:00.148Z,2190.00
2023-03-29T11:09:00.114Z,2192.00
2023-03-29T11:10:00.122Z,2196.00
2023-03-29T11:11:00.229Z,2195.00
2023-03-29T11:12:14.391Z,2195.00
2023-03-29T11:13:01.005Z,2194.00
2023-03-29T11:14:00.128Z,2189.00
2023-03-29T11:14:59.929Z,2182.00
2023-03-29T11:15:59.926Z,2178.00
2023-03-29T11:16:59.868Z,2175.00
2023-03-29T11:17:59.886Z,2174.00
2023-03-29T11:18:59.813Z,2170.00
2023-03-29T11:20:00.238Z,2172.00
2023-03-29T11:20:59.829Z,2175.00
2023-03-29T11:21:59.709Z,2177.00
2023-03-29T11:22:59.680Z,2176.00
2023-03-29T11:23:59.653Z,2173.00
2023-03-29T11:24:59.675Z,2169.00
2023-03-29T11:25:59.717Z,2168.00
2023-03-29T11:26:59.761Z,2163.00
2023-03-29T11:27:59.770Z,2162.00
2023-03-29T11:28:59.781Z,2157.00
2023-03-29T11:29:59.784Z,2154.00
2023-03-29T11:30:59.886Z,2150.00
2023-03-29T11:31:59.823Z,2148.00
2023-03-29T11:32:59.901Z,2148.00
2023-03-29T11:33:59.763Z,2144.00
2023-03-29T11:34:59.778Z,2138.00
2023-03-29T11:35:59.829Z,2133.00
2023-03-29T11:36:59.826Z,2128.00
2023-03-29T11:37:59.849Z,2122.00
2023-03-29T11:38:59.865Z,2123.00
2023-03-29T11:39:59.894Z,2119.00
2023-03-29T11:40:59.908Z,2116.00
2023-03-29T11:41:59.922Z,2110.00
2023-03-29T11:42:59.953Z,2101.00
2023-03-29T11:43:59.990Z,2104.00
2023-03-29T11:45:00.049Z,2099.00
2023-03-29T11:46:00.097Z,2099.00
2023-03-29T11:47:00.177Z,2097.00
2023-03-29T11:48:00.143Z,2098.00
2023-03-29T11:49:00.134Z,2095.00
2023-03-29T11:50:00.150Z,2094.00
2023-03-29T11:51:00.256Z,2091.00
2023-03-29T11:52:00.118Z,2085.00
2023-03-29T11:53:00.067Z,2079.00
2023-03-29T11:54:00.069Z,2074.00
2023-03-29T11:55:00.111Z,2073.00
2023-03-29T11:56:00.083Z,2070.00
2023-03-29T11:57:00.156Z,2071.00
2023-03-29T11:58:00.029Z,2068.00
2023-03-29T11:59:00.002Z,2066.00
2023-03-29T12:00:00.028Z,2064.00
2023-03-29T12:01:00.293Z,2058.00
2023-03-29T12:01:59.998Z,2053.00
2023-03-29T12:03:00.047Z,2055.00
2023-03-29T12:04:00.079Z,2054.00
2023-03-29T12:04:59.911Z,2047.00
2023-03-29T12:05:59.911Z,2039.00